createdAt,value
2019-03-30T00:00:51.466Z,75.47
2019-03-30T00:03:19.838Z,78.87
2019-03-30T00:05:48.194Z,79.77
2019-03-30T00:08:16.587Z,85.90
2019-03-30T00:10:45.079Z,79.83
2019-03-30T00:13:13.499Z,84.63
2019-03-30T00:15:41.903Z,81.93
2019-03-30T00:18:10.303Z,86.73
2019-03-30T00:20:38.760Z,86.37
2019-03-30T00:23:07.239Z,83.27
2019-03-30T00:25:35.626Z,85.23
2019-03-30T00:28:04.050Z,85.20
2019-03-30T00:30:32.455Z,84.50
2019-03-30T00:33:00.847Z,83.50
2019-03-30T00:35:29.287Z,79.80
2019-03-30T00:37:57.667Z,80.03
2019-03-30T00:40:26.083Z,87.93
2019-03-30T00:42:54.465Z,83.20
2019-03-30T00:45:22.930Z,84.60
2019-03-30T00:47:51.344Z,89.70
2019-03-30T00:50:19.743Z,87.43
2019-03-30T00:52:48.134Z,84.83
2019-03-30T00:55:16.521Z,79.33
2019-03-30T00:57:44.915Z,80.40
2019-03-30T01:00:13.304Z,75.43
2019-03-30T01:02:41.715Z,88.03
2019-03-30T01:05:10.090Z,81.37
2019-03-30T01:07:38.471Z,91.73
2019-03-30T01:10:07.311Z,96.47
2019-03-30T01:12:35.663Z,89.20
2019-03-30T01:15:08.499Z,95.83
2019-03-30T01:17:36.954Z,90.10
2019-03-30T01:20:07.160Z,90.63
2019-03-30T01:22:35.546Z,89.20
2019-03-30T01:25:06.106Z,90.90
2019-03-30T01:27:34.519Z,88.93
2019-03-30T01:30:02.894Z,89.73
2019-03-30T01:32:31.294Z,95.40
2019-03-30T01:34:59.683Z,96.07
2019-03-30T01:37:28.071Z,96.33
2019-03-30T01:39:56.462Z,91.90
2019-03-30T01:42:24.868Z,96.47
2019-03-30T01:44:53.260Z,91.33
2019-03-30T01:47:21.639Z,103.43
2019-03-30T01:49:49.972Z,99.53
2019-03-30T01:52:18.355Z,91.60
2019-03-30T01:54:47.200Z,94.47
2019-03-30T01:57:15.527Z,95.67
2019-03-30T01:59:43.936Z,97.00
2019-03-30T02:02:12.382Z,99.83
2019-03-30T02:04:40.782Z,97.27
2019-03-30T02:07:09.218Z,100.43
2019-03-30T02:09:37.667Z,94.60
2019-03-30T02:12:06.076Z,94.37
2019-03-30T02:14:34.457Z,90.93
2019-03-30T02:17:02.854Z,97.37
2019-03-30T02:19:31.252Z,94.20
2019-03-30T02:21:59.655Z,92.50
2019-03-30T02:24:28.087Z,90.27
2019-03-30T02:26:56.486Z,92.33
2019-03-30T02:29:24.871Z,89.57
2019-03-30T02:31:53.247Z,91.87
2019-03-30T02:34:21.734Z,96.43
2019-03-30T02:36:50.191Z,95.50
2019-03-30T02:39:18.620Z,102.10
2019-03-30T02:41:47.069Z,98.23
2019-03-30T02:44:15.448Z,98.53
2019-03-30T02:46:43.858Z,97.87
2019-03-30T02:49:12.236Z,91.80
2019-03-30T02:51:40.661Z,100.17
2019-03-30T02:54:09.043Z,99.23
2019-03-30T02:56:37.434Z,89.67
2019-03-30T02:59:05.813Z,91.57
2019-03-30T03:01:34.215Z,96.93
2019-03-30T03:04:02.624Z,90.50
2019-03-30T03:06:31.003Z,87.70
2019-03-30T03:08:59.423Z,91.33
2019-03-30T03:11:27.821Z,82.50
2019-03-30T03:13:56.199Z,100.07
2019-03-30T03:16:27.268Z,90.43
2019-03-30T03:18:54.660Z,96.57
2019-03-30T03:21:23.091Z,88.23
2019-03-30T03:23:51.500Z,102.27
2019-03-30T03:26:19.902Z,86.87
2019-03-30T03:28:48.332Z,90.87
2019-03-30T03:31:16.746Z,87.10
2019-03-30T03:33:45.164Z,88.80
2019-03-30T03:36:14.575Z,94.80
2019-03-30T03:38:42.991Z,101.90
2019-03-30T03:41:11.406Z,90.97
2019-03-30T03:43:39.862Z,93.23
2019-03-30T03:46:08.250Z,93.23
2019-03-30T03:48:36.658Z,96.80
2019-03-30T03:51:05.503Z,90.00
2019-03-30T03:53:34.561Z,89.47
2019-03-30T03:56:04.079Z,92.13
2019-03-30T03:58:34.278Z,94.07
2019-03-30T04:01:02.750Z,85.20
2019-03-30T04:03:32.182Z,87.03
2019-03-30T04:06:02.551Z,89.00
2019-03-30T04:08:31.701Z,91.47
2019-03-30T04:11:00.182Z,91.50
2019-03-30T04:13:29.238Z,88.30
2019-03-30T04:15:57.691Z,87.13
2019-03-30T04:18:26.101Z,84.27
2019-03-30T04:20:54.470Z,90.03
2019-03-30T04:23:22.870Z,87.30
2019-03-30T04:25:51.365Z,82.03
2019-03-30T04:28:19.792Z,84.77
2019-03-30T04:30:48.236Z,84.87
2019-03-30T04:33:16.650Z,85.10
2019-03-30T04:35:45.034Z,84.00
2019-03-30T04:38:14.411Z,93.97
2019-03-30T04:40:43.046Z,86.07
2019-03-30T04:43:11.428Z,86.10
2019-03-30T04:45:39.837Z,85.63
2019-03-30T04:48:08.212Z,88.17
2019-03-30T04:50:36.622Z,89.43
2019-03-30T04:53:05.072Z,87.57
2019-03-30T04:55:33.447Z,89.90
2019-03-30T04:58:01.845Z,86.37
2019-03-30T05:00:30.231Z,85.73
2019-03-30T05:02:58.642Z,84.43
2019-03-30T05:05:27.026Z,81.50
2019-03-30T05:07:55.466Z,77.77
2019-03-30T05:10:23.997Z,88.67
2019-03-30T05:12:52.376Z,86.40
2019-03-30T05:15:20.769Z,83.13
2019-03-30T05:17:49.151Z,77.13
2019-03-30T05:20:17.563Z,80.73
2019-03-30T05:22:46.067Z,76.57
2019-03-30T05:25:14.477Z,81.33
2019-03-30T05:27:42.878Z,76.13
2019-03-30T05:30:11.839Z,80.77
2019-03-30T05:32:41.763Z,80.67
2019-03-30T05:35:10.495Z,78.90
2019-03-30T05:37:38.927Z,83.93
2019-03-30T05:40:07.426Z,79.20
2019-03-30T05:42:35.828Z,76.10
2019-03-30T05:45:06.080Z,82.43
2019-03-30T05:47:34.470Z,81.00
2019-03-30T05:50:02.884Z,82.47
2019-03-30T05:52:31.286Z,85.03
2019-03-30T05:54:59.685Z,81.17
2019-03-30T05:57:28.094Z,79.00
2019-03-30T05:59:56.580Z,86.07
2019-03-30T06:02:25.012Z,76.03
2019-03-30T06:04:53.429Z,75.23
2019-03-30T06:07:21.840Z,77.37
2019-03-30T06:09:50.223Z,71.20
2019-03-30T06:12:18.637Z,74.50
2019-03-30T06:14:47.033Z,71.27
2019-03-30T06:17:15.457Z,74.03
2019-03-30T06:19:43.876Z,71.33
2019-03-30T06:22:12.280Z,66.30
2019-03-30T06:24:40.700Z,62.60
2019-03-30T06:27:09.095Z,67.07
2019-03-30T06:29:37.504Z,64.60
2019-03-30T06:32:06.031Z,64.77
2019-03-30T06:34:34.450Z,62.17
2019-03-30T06:37:02.860Z,56.67
2019-03-30T06:39:31.272Z,55.63
2019-03-30T06:41:59.691Z,56.33
2019-03-30T06:44:28.079Z,48.67
2019-03-30T06:46:56.496Z,49.63
2019-03-30T06:49:24.879Z,41.47
2019-03-30T06:51:53.444Z,41.87
2019-03-30T06:54:21.854Z,42.00
2019-03-30T06:56:50.257Z,39.27
2019-03-30T06:59:18.663Z,40.67
2019-03-30T07:01:47.055Z,40.83
2019-03-30T07:04:15.495Z,40.17
2019-03-30T07:06:43.921Z,39.40
2019-03-30T07:09:12.310Z,36.43
2019-03-30T07:11:42.483Z,38.00
2019-03-30T07:14:10.986Z,37.93
2019-03-30T07:16:39.391Z,39.00
2019-03-30T07:19:07.808Z,33.33
2019-03-30T07:21:36.199Z,30.87
2019-03-30T07:24:04.607Z,32.03
2019-03-30T07:26:34.052Z,36.67
2019-03-30T07:29:02.462Z,35.47
2019-03-30T07:31:30.857Z,31.23
2019-03-30T07:33:59.256Z,31.67
2019-03-30T07:36:27.655Z,30.57
2019-03-30T07:38:56.063Z,32.40
2019-03-30T07:41:24.462Z,31.90
2019-03-30T07:43:52.897Z,33.23
2019-03-30T07:46:21.278Z,29.80
2019-03-30T07:48:49.688Z,29.93
2019-03-30T07:51:18.101Z,33.13
2019-03-30T07:53:46.479Z,31.60
2019-03-30T07:56:14.927Z,29.57
2019-03-30T07:58:43.383Z,28.27
2019-03-30T08:01:12.056Z,29.47
2019-03-30T08:03:40.441Z,30.27
2019-03-30T08:06:08.876Z,32.80
2019-03-30T08:08:37.267Z,31.67
2019-03-30T08:11:05.659Z,31.43
2019-03-30T08:13:34.083Z,33.20
2019-03-30T08:16:02.458Z,34.33
2019-03-30T08:18:30.883Z,34.20
2019-03-30T08:20:59.278Z,35.03
2019-03-30T08:23:39.834Z,36.83
2019-03-30T08:25:57.730Z,36.00
2019-03-30T08:28:26.140Z,39.40
2019-03-30T08:30:54.564Z,39.63
2019-03-30T08:33:23.019Z,42.07
2019-03-30T08:35:51.423Z,40.87
2019-03-30T08:38:19.815Z,36.73
2019-03-30T08:40:48.224Z,35.30
2019-03-30T08:43:16.615Z,36.70
2019-03-30T08:45:45.028Z,37.37
2019-03-30T08:48:13.431Z,40.10
2019-03-30T08:50:41.839Z,33.23
2019-03-30T08:53:10.259Z,37.20
2019-03-30T08:55:38.645Z,36.53
2019-03-30T08:58:07.079Z,117.37
2019-03-30T09:00:39.735Z,43.23
2019-03-30T09:03:08.143Z,37.63
2019-03-30T09:05:36.547Z,37.23
2019-03-30T09:08:04.942Z,37.13
2019-03-30T09:10:33.360Z,43.23
2019-03-30T09:13:01.754Z,40.20
2019-03-30T09:15:30.232Z,43.57
2019-03-30T09:17:58.619Z,41.03
2019-03-30T09:20:27.089Z,41.90
2019-03-30T09:22:55.424Z,41.83
2019-03-30T09:25:23.802Z,34.97
2019-03-30T09:27:52.218Z,39.03
2019-03-30T09:30:20.878Z,40.07
2019-03-30T09:32:49.323Z,43.83
2019-03-30T09:35:17.754Z,42.90
2019-03-30T09:37:46.167Z,43.23
2019-03-30T09:40:14.662Z,41.80
2019-03-30T09:42:43.067Z,45.80
2019-03-30T09:45:11.493Z,44.20
2019-03-30T09:47:39.956Z,44.27
2019-03-30T09:50:08.638Z,47.57
2019-03-30T09:52:37.111Z,42.83
2019-03-30T09:55:06.880Z,46.83
2019-03-30T09:57:35.263Z,47.33
2019-03-30T10:00:03.745Z,45.67
2019-03-30T10:02:32.131Z,50.20
2019-03-30T10:05:00.503Z,45.83
2019-03-30T10:07:28.958Z,46.13
2019-03-30T10:09:57.355Z,44.07
2019-03-30T10:12:25.767Z,46.67
2019-03-30T10:14:54.190Z,46.90
2019-03-30T10:17:22.575Z,49.00
2019-03-30T10:20:03.587Z,47.23
2019-03-30T10:22:21.210Z,45.70
2019-03-30T10:24:49.623Z,47.30
2019-03-30T10:27:18.133Z,50.03
2019-03-30T10:29:46.543Z,47.23
2019-03-30T10:32:14.978Z,49.73
2019-03-30T10:34:43.356Z,45.23
2019-03-30T10:37:11.793Z,46.47
2019-03-30T10:39:40.160Z,59.53
2019-03-30T10:42:08.578Z,47.77
2019-03-30T10:44:37.016Z,49.13
2019-03-30T10:47:05.444Z,45.40
2019-03-30T10:49:33.833Z,43.13
2019-03-30T10:52:02.275Z,43.40
2019-03-30T10:54:30.760Z,45.67
2019-03-30T10:56:59.173Z,44.83
2019-03-30T10:59:27.547Z,46.57
2019-03-30T11:01:55.939Z,45.80
2019-03-30T11:04:24.383Z,44.00
2019-03-30T11:06:52.781Z,48.73
2019-03-30T11:09:21.319Z,46.97
2019-03-30T11:11:49.695Z,48.07
2019-03-30T11:14:18.146Z,43.63
2019-03-30T11:16:46.622Z,48.13
2019-03-30T11:19:15.012Z,51.63
2019-03-30T11:21:43.440Z,49.33
2019-03-30T11:24:11.834Z,51.97
2019-03-30T11:26:40.225Z,46.23
2019-03-30T11:29:08.919Z,45.50
2019-03-30T11:31:37.308Z,40.97
2019-03-30T11:34:05.722Z,46.43
2019-03-30T11:36:34.206Z,44.67
2019-03-30T11:39:03.299Z,47.63
2019-03-30T11:41:31.760Z,45.83
2019-03-30T11:44:00.137Z,53.07
2019-03-30T11:46:28.561Z,59.57
2019-03-30T11:48:56.961Z,60.97
2019-03-30T11:51:25.368Z,63.00
2019-03-30T11:53:54.169Z,60.37
2019-03-30T11:56:22.541Z,57.80
2019-03-30T11:58:50.947Z,55.87
2019-03-30T12:01:21.768Z,60.47
2019-03-30T12:03:49.380Z,62.27
2019-03-30T12:06:17.834Z,110.33
2019-03-30T12:08:46.280Z,47.30
2019-03-30T12:11:14.657Z,49.07
2019-03-30T12:13:43.065Z,55.23
2019-03-30T12:16:11.519Z,48.77
2019-03-30T12:18:40.320Z,50.70
2019-03-30T12:21:08.668Z,54.53
2019-03-30T12:23:37.070Z,53.03
2019-03-30T12:26:05.481Z,54.23
2019-03-30T12:28:33.873Z,54.30
2019-03-30T12:31:02.284Z,52.80
2019-03-30T12:33:31.039Z,52.53
2019-03-30T12:35:59.438Z,49.70
2019-03-30T12:38:27.843Z,49.37
2019-03-30T12:40:56.265Z,51.03
2019-03-30T12:43:24.658Z,49.80
2019-03-30T12:45:53.085Z,51.83
2019-03-30T12:48:21.476Z,51.57
2019-03-30T12:50:49.880Z,52.50
2019-03-30T12:53:18.316Z,57.33
2019-03-30T12:55:49.578Z,48.53
2019-03-30T12:58:16.763Z,47.13
2019-03-30T13:00:45.283Z,45.93
2019-03-30T13:03:13.662Z,58.40
2019-03-30T13:05:42.075Z,52.17
2019-03-30T13:08:10.450Z,47.30
2019-03-30T13:10:38.863Z,47.27
2019-03-30T13:13:07.349Z,58.23
2019-03-30T13:15:35.770Z,61.73
2019-03-30T13:18:04.176Z,63.17
2019-03-30T13:20:32.590Z,60.97
2019-03-30T13:23:00.987Z,61.20
2019-03-30T13:25:29.373Z,59.70
2019-03-30T13:27:57.815Z,62.93
2019-03-30T13:30:26.346Z,61.17
2019-03-30T13:32:54.769Z,60.67
2019-03-30T13:35:23.166Z,68.80
2019-03-30T13:37:51.600Z,61.87
2019-03-30T13:40:20.038Z,65.03
2019-03-30T13:42:48.415Z,68.20
2019-03-30T13:45:16.833Z,56.13
2019-03-30T13:47:45.227Z,62.00
2019-03-30T13:50:13.655Z,62.27
2019-03-30T13:52:42.026Z,60.80
2019-03-30T13:55:10.494Z,61.83
2019-03-30T13:57:38.863Z,67.03
2019-03-30T14:00:08.041Z,64.53
2019-03-30T14:02:36.437Z,65.30
2019-03-30T14:05:05.899Z,60.30
2019-03-30T14:07:34.371Z,57.77
2019-03-30T14:10:03.499Z,61.27
2019-03-30T14:12:31.949Z,65.67
2019-03-30T14:15:00.377Z,68.57
2019-03-30T14:17:28.778Z,73.03
2019-03-30T14:19:57.195Z,65.60
2019-03-30T14:22:25.570Z,66.00
2019-03-30T14:24:53.966Z,76.27
2019-03-30T14:27:22.355Z,68.53
2019-03-30T14:29:51.698Z,65.77
2019-03-30T14:32:20.782Z,67.47
2019-03-30T14:34:49.234Z,71.37
2019-03-30T14:37:17.632Z,72.93
2019-03-30T14:39:46.012Z,70.13
2019-03-30T14:42:14.485Z,65.67
2019-03-30T14:44:42.889Z,65.37
2019-03-30T14:47:11.313Z,52.90
2019-03-30T14:49:39.722Z,61.90
2019-03-30T14:52:08.099Z,62.67
2019-03-30T14:54:36.547Z,64.67
2019-03-30T14:57:04.966Z,51.70
2019-03-30T14:59:33.339Z,51.87
2019-03-30T15:02:01.759Z,55.90
2019-03-30T15:04:30.211Z,56.20
2019-03-30T15:06:58.681Z,55.67
2019-03-30T15:09:27.126Z,52.33
2019-03-30T15:11:55.548Z,44.37
2019-03-30T15:14:23.928Z,52.33
2019-03-30T15:16:52.352Z,62.03
2019-03-30T15:19:20.810Z,65.83
2019-03-30T15:21:49.212Z,66.70
2019-03-30T15:24:17.658Z,61.97
2019-03-30T15:26:59.307Z,61.07
2019-03-30T15:29:16.099Z,61.53
2019-03-30T15:31:44.479Z,57.53
2019-03-30T15:34:13.346Z,43.90
2019-03-30T15:36:41.736Z,49.63
2019-03-30T15:39:10.152Z,51.10
2019-03-30T15:41:38.554Z,47.20
2019-03-30T15:44:06.938Z,53.10
2019-03-30T15:46:35.352Z,53.90
2019-03-30T15:49:03.767Z,51.43
2019-03-30T15:51:32.163Z,46.73
2019-03-30T15:54:00.552Z,46.93
2019-03-30T15:56:28.986Z,50.00
2019-03-30T15:58:57.400Z,51.50
2019-03-30T16:01:25.880Z,45.17
2019-03-30T16:03:54.292Z,47.80
2019-03-30T16:06:22.719Z,51.60
2019-03-30T16:08:51.096Z,57.43
2019-03-30T16:11:19.482Z,52.67
2019-03-30T16:13:48.018Z,56.30
2019-03-30T16:16:16.422Z,56.23
2019-03-30T16:18:44.811Z,57.87
2019-03-30T16:21:13.248Z,54.20
2019-03-30T16:23:41.626Z,49.97
2019-03-30T16:26:10.030Z,54.30
2019-03-30T16:28:38.436Z,51.70
2019-03-30T16:31:06.820Z,55.77
2019-03-30T16:33:35.246Z,60.07
2019-03-30T16:36:03.644Z,51.30
2019-03-30T16:38:32.050Z,46.93
2019-03-30T16:41:00.466Z,52.43
2019-03-30T16:43:28.904Z,49.03
2019-03-30T16:45:57.312Z,51.53
2019-03-30T16:48:25.699Z,45.33
2019-03-30T16:50:54.117Z,51.10
2019-03-30T16:53:22.507Z,47.57
2019-03-30T16:55:50.952Z,50.17
2019-03-30T16:58:19.354Z,48.33
2019-03-30T17:00:56.403Z,51.83
2019-03-30T17:03:17.810Z,49.73
2019-03-30T17:05:46.215Z,54.33
2019-03-30T17:08:14.548Z,49.93
2019-03-30T17:10:42.953Z,49.27
2019-03-30T17:13:11.441Z,50.93
2019-03-30T17:15:39.854Z,52.30
2019-03-30T17:18:08.244Z,51.60
2019-03-30T17:20:36.647Z,46.30
2019-03-30T17:23:05.083Z,54.63
2019-03-30T17:25:33.586Z,48.17
2019-03-30T17:28:02.051Z,49.33
2019-03-30T17:30:30.490Z,48.33
2019-03-30T17:32:58.981Z,45.53
2019-03-30T17:35:27.387Z,48.43
2019-03-30T17:37:55.777Z,48.67
2019-03-30T17:40:24.290Z,47.63
2019-03-30T17:42:52.635Z,46.70
2019-03-30T17:45:21.034Z,42.27
2019-03-30T17:47:49.462Z,46.03
2019-03-30T17:50:17.877Z,44.47
2019-03-30T17:52:46.296Z,45.60
2019-03-30T17:55:14.699Z,45.30
2019-03-30T17:57:43.098Z,51.80
2019-03-30T18:00:13.595Z,49.87
2019-03-30T18:02:42.012Z,51.33
2019-03-30T18:05:10.434Z,53.50
2019-03-30T18:07:38.843Z,57.90
2019-03-30T18:10:07.329Z,59.13
2019-03-30T18:12:35.780Z,62.20
2019-03-30T18:15:05.132Z,59.93
2019-03-30T18:17:33.551Z,60.77
2019-03-30T18:20:02.031Z,65.93
2019-03-30T18:22:30.440Z,70.17
2019-03-30T18:24:58.851Z,66.77
2019-03-30T18:27:27.259Z,69.17
2019-03-30T18:29:55.816Z,65.20
2019-03-30T18:32:24.204Z,64.17
2019-03-30T18:34:52.616Z,60.77
2019-03-30T18:37:22.952Z,64.77
2019-03-30T18:39:51.463Z,63.63
2019-03-30T18:42:19.864Z,59.47
2019-03-30T18:44:48.287Z,59.80
2019-03-30T18:47:16.728Z,57.77
2019-03-30T18:49:45.166Z,57.43
2019-03-30T18:52:13.644Z,58.50
2019-03-30T18:54:42.432Z,60.63
2019-03-30T18:57:10.860Z,54.20
2019-03-30T18:59:39.258Z,57.57
2019-03-30T19:02:07.670Z,58.47
2019-03-30T19:04:36.125Z,55.83
2019-03-30T19:07:04.488Z,56.80
2019-03-30T19:09:32.897Z,61.83
2019-03-30T19:12:01.359Z,60.23
2019-03-30T19:14:29.857Z,60.00
2019-03-30T19:16:58.251Z,57.27
2019-03-30T19:19:26.675Z,58.17
2019-03-30T19:21:55.151Z,70.30
2019-03-30T19:24:23.568Z,67.30
2019-03-30T19:26:52.027Z,63.23
2019-03-30T19:29:20.460Z,60.43
2019-03-30T19:31:48.874Z,65.43
2019-03-30T19:34:17.407Z,63.93
2019-03-30T19:36:45.831Z,71.70
2019-03-30T19:39:14.278Z,66.53
2019-03-30T19:41:42.639Z,63.63
2019-03-30T19:44:11.081Z,67.43
2019-03-30T19:46:39.481Z,65.27
2019-03-30T19:49:07.888Z,66.93
2019-03-30T19:51:36.404Z,73.97
2019-03-30T19:54:04.799Z,66.97
2019-03-30T19:56:33.196Z,74.40
2019-03-30T19:59:10.592Z,69.87
2019-03-30T20:01:31.797Z,69.27
2019-03-30T20:04:00.199Z,70.20
2019-03-30T20:06:28.604Z,74.97
2019-03-30T20:08:57.065Z,68.30
2019-03-30T20:11:25.484Z,67.90
2019-03-30T20:13:54.102Z,68.43
2019-03-30T20:16:22.515Z,68.40
2019-03-30T20:18:50.941Z,72.53
2019-03-30T20:21:19.352Z,74.23
2019-03-30T20:23:47.795Z,73.80
2019-03-30T20:26:16.183Z,74.83
2019-03-30T20:28:44.590Z,84.70
2019-03-30T20:31:12.979Z,74.20
2019-03-30T20:33:41.480Z,78.90
2019-03-30T20:36:09.903Z,75.50
2019-03-30T20:38:38.312Z,77.17
2019-03-30T20:41:06.729Z,77.37
2019-03-30T20:43:35.134Z,79.73
2019-03-30T20:46:03.554Z,81.43
2019-03-30T20:48:31.956Z,81.27
2019-03-30T20:51:00.347Z,91.47
2019-03-30T20:53:28.786Z,80.77
2019-03-30T20:55:57.182Z,82.87
2019-03-30T20:58:25.606Z,84.67
2019-03-30T21:00:54.178Z,90.27
2019-03-30T21:03:22.669Z,97.27
2019-03-30T21:05:51.181Z,83.33
2019-03-30T21:08:19.593Z,86.63
2019-03-30T21:10:48.100Z,86.57
2019-03-30T21:13:16.495Z,91.30
2019-03-30T21:15:44.911Z,90.17
2019-03-30T21:18:13.325Z,93.07
2019-03-30T21:20:41.745Z,92.63
2019-03-30T21:23:10.216Z,90.50
2019-03-30T21:25:38.693Z,90.47
2019-03-30T21:28:07.106Z,95.07
2019-03-30T21:30:35.582Z,94.90
2019-03-30T21:33:04.057Z,96.40
2019-03-30T21:35:32.450Z,94.17
2019-03-30T21:38:00.868Z,91.00
2019-03-30T21:40:29.264Z,98.50
2019-03-30T21:42:57.675Z,96.07
2019-03-30T21:45:26.076Z,95.70
2019-03-30T21:47:54.488Z,96.90
2019-03-30T21:50:22.998Z,89.97
2019-03-30T21:52:51.499Z,99.87
2019-03-30T21:55:19.943Z,96.20
2019-03-30T21:57:48.408Z,106.30
2019-03-30T22:00:28.977Z,94.27
2019-03-30T22:02:57.464Z,101.60
2019-03-30T22:05:25.936Z,94.97
2019-03-30T22:07:54.382Z,99.77
2019-03-30T22:10:27.638Z,99.37
2019-03-30T22:12:56.416Z,104.83
2019-03-30T22:15:28.716Z,99.33
2019-03-30T22:17:57.332Z,101.43
2019-03-30T22:20:26.060Z,100.47
2019-03-30T22:22:54.459Z,112.43
2019-03-30T22:25:22.870Z,105.57
2019-03-30T22:27:51.263Z,106.07
2019-03-30T22:30:25.052Z,111.67
2019-03-30T22:32:49.776Z,104.53
2019-03-30T22:35:18.218Z,101.77
2019-03-30T22:37:46.665Z,105.73
2019-03-30T22:40:15.042Z,106.30
2019-03-30T22:42:43.470Z,107.67
2019-03-30T22:45:11.880Z,106.13
2019-03-30T22:47:40.311Z,111.70
2019-03-30T22:50:08.719Z,115.93
2019-03-30T22:52:37.205Z,108.50
2019-03-30T22:55:06.484Z,120.53
2019-03-30T22:57:34.896Z,116.20
2019-03-30T23:00:05.043Z,132.70
2019-03-30T23:02:33.508Z,134.17
2019-03-30T23:05:01.913Z,120.77
2019-03-30T23:07:30.326Z,125.07
2019-03-30T23:09:58.733Z,129.10
2019-03-30T23:12:27.120Z,125.50
2019-03-30T23:14:55.522Z,126.00
2019-03-30T23:17:23.939Z,128.40
2019-03-30T23:19:52.399Z,128.63
2019-03-30T23:22:20.807Z,129.63
2019-03-30T23:24:49.205Z,135.50
2019-03-30T23:27:17.619Z,134.90
2019-03-30T23:29:45.985Z,134.90
2019-03-30T23:32:14.456Z,142.00
2019-03-30T23:34:42.827Z,128.97
2019-03-30T23:37:11.252Z,139.33
2019-03-30T23:39:39.679Z,137.80
2019-03-30T23:42:08.208Z,140.37
2019-03-30T23:44:36.668Z,144.07
2019-03-30T23:47:05.066Z,134.03
2019-03-30T23:49:33.571Z,131.37
2019-03-30T23:52:02.838Z,132.53
2019-03-30T23:54:31.256Z,142.93
2019-03-30T23:56:59.651Z,131.63
2019-03-30T23:59:28.184Z,140.97
